Aviation Digital Data Service (ADDS)

Output produced by METARs form (2208 UTC 18 January 2017)
found at http://aviationweather.gov/adds/metars/
 
KAEX 182153Z 10006KT 10SM FEW050 BKN090 19/19 A2996 RMK AO2 LTG DSNT NW RAE17 SLP149 P0002 T01940194